PRJ1 LFLB-LFLJ
Flight info
| Callsign | PRJ1 |
|---|---|
| Flight time | 0h 44m |
| Altitude | 13000 |
| Route | PAS T37 PADCA |
| Aircraft | C310/L-SDFGR/S |
Departure
| Time | 2026-05-04 20:42 |
|---|---|
| Airport | Chambéry Aix les Bains airport (LFLB) |
Arrival
| Time | 2026-05-04 21:26 |
|---|---|
| Airport | Courchevel Altiport (LFLJ) |
| Time | Latitude | Longitude | Altitude | Speed | Heading |
|---|---|---|---|---|---|
| 2026-05-04 20:19 | 45.63508 | 5.88340 | 776 ft | 0 kts | 86° |
| 2026-05-04 20:36 | 45.63508 | 5.88342 | 776 ft | 2 kts | 93° |
| 2026-05-04 20:36 | 45.63489 | 5.88303 | 776 ft | 5 kts | 222° |
| 2026-05-04 20:36 | 45.63452 | 5.88272 | 776 ft | 1 kts | 268° |
| 2026-05-04 20:37 | 45.63424 | 5.88252 | 776 ft | 10 kts | 175° |
| 2026-05-04 20:37 | 45.63347 | 5.88263 | 777 ft | 12 kts | 175° |
| 2026-05-04 20:37 | 45.63259 | 5.88272 | 777 ft | 13 kts | 176° |
| 2026-05-04 20:37 | 45.63179 | 5.88255 | 778 ft | 8 kts | 229° |
| 2026-05-04 20:38 | 45.63153 | 5.88177 | 779 ft | 10 kts | 261° |
| 2026-05-04 20:38 | 45.63133 | 5.88082 | 780 ft | 11 kts | 215° |
| 2026-05-04 20:38 | 45.63046 | 5.88072 | 779 ft | 12 kts | 175° |
| 2026-05-04 20:38 | 45.63014 | 5.88082 | 779 ft | 1 kts | 117° |
| 2026-05-04 20:39 | 45.63031 | 5.88097 | 779 ft | 4 kts | 353° |
| 2026-05-04 20:39 | 45.63042 | 5.88095 | 779 ft | 0 kts | 352° |
| 2026-05-04 20:39 | 45.63045 | 5.88095 | 779 ft | 1 kts | 354° |
| 2026-05-04 20:40 | 45.63064 | 5.88092 | 779 ft | 5 kts | 354° |
| 2026-05-04 20:40 | 45.63289 | 5.88066 | 778 ft | 23 kts | 354° |
| 2026-05-04 20:40 | 45.63272 | 5.88060 | 778 ft | 16 kts | 170° |
| 2026-05-04 20:40 | 45.63124 | 5.88072 | 780 ft | 19 kts | 201° |
| 2026-05-04 20:41 | 45.63102 | 5.88095 | 780 ft | 0 kts | 2° |
| 2026-05-04 20:41 | 45.63106 | 5.88095 | 780 ft | 0 kts | 357° |
| 2026-05-04 20:41 | 45.63159 | 5.88068 | 780 ft | 38 kts | 341° |
| 2026-05-04 20:41 | 45.63682 | 5.88023 | 836 ft | 100 kts | 358° |
| 2026-05-04 20:42 | 45.64426 | 5.87980 | 1248 ft | 115 kts | 0° |
| 2026-05-04 20:42 | 45.65278 | 5.88016 | 1681 ft | 129 kts | 3° |
| 2026-05-04 20:42 | 45.66205 | 5.88069 | 2101 ft | 137 kts | 3° |
| 2026-05-04 20:42 | 45.67180 | 5.88128 | 2499 ft | 143 kts | 4° |
| 2026-05-04 20:43 | 45.68182 | 5.88237 | 2882 ft | 145 kts | 5° |
| 2026-05-04 20:43 | 45.69191 | 5.88357 | 3271 ft | 145 kts | 5° |
| 2026-05-04 20:43 | 45.70195 | 5.88475 | 3676 ft | 144 kts | 5° |
| 2026-05-04 20:43 | 45.71196 | 5.88587 | 4087 ft | 144 kts | 5° |
| 2026-05-04 20:44 | 45.72260 | 5.88712 | 4144 ft | 165 kts | 8° |
| 2026-05-04 20:44 | 45.73370 | 5.88902 | 4553 ft | 157 kts | 9° |
| 2026-05-04 20:44 | 45.74439 | 5.89085 | 4928 ft | 152 kts | 9° |
| 2026-05-04 20:44 | 45.75480 | 5.89272 | 5281 ft | 150 kts | 10° |
| 2026-05-04 20:45 | 45.76507 | 5.89448 | 5642 ft | 148 kts | 8° |
| 2026-05-04 20:45 | 45.77525 | 5.89618 | 6008 ft | 146 kts | 8° |
| 2026-05-04 20:45 | 45.78538 | 5.89783 | 6376 ft | 146 kts | 7° |
| 2026-05-04 20:45 | 45.79544 | 5.89945 | 6725 ft | 144 kts | 7° |
| 2026-05-04 20:46 | 45.80542 | 5.90102 | 7009 ft | 146 kts | 6° |
| 2026-05-04 20:46 | 45.81557 | 5.90258 | 7250 ft | 147 kts | 6° |
| 2026-05-04 20:46 | 45.82581 | 5.90416 | 7492 ft | 148 kts | 6° |
| 2026-05-04 20:46 | 45.83587 | 5.90569 | 7731 ft | 147 kts | 5° |
| 2026-05-04 20:47 | 45.84594 | 5.90718 | 7974 ft | 144 kts | 5° |
| 2026-05-04 20:47 | 45.85588 | 5.90862 | 8211 ft | 141 kts | 4° |
| 2026-05-04 20:47 | 45.86554 | 5.90998 | 8447 ft | 137 kts | 4° |
| 2026-05-04 20:47 | 45.87491 | 5.91125 | 8676 ft | 133 kts | 3° |
| 2026-05-04 20:48 | 45.88393 | 5.91242 | 8903 ft | 128 kts | 2° |
| 2026-05-04 20:48 | 45.89260 | 5.91348 | 9123 ft | 122 kts | 1° |
| 2026-05-04 20:48 | 45.90075 | 5.91442 | 9321 ft | 113 kts | 0° |
| 2026-05-04 20:48 | 45.90860 | 5.91530 | 9395 ft | 114 kts | 0° |
| 2026-05-04 20:49 | 45.91648 | 5.91613 | 9466 ft | 113 kts | 360° |
| 2026-05-04 20:49 | 45.92427 | 5.91686 | 9544 ft | 111 kts | 359° |
| 2026-05-04 20:49 | 45.93223 | 5.91755 | 9548 ft | 117 kts | 359° |
| 2026-05-04 20:49 | 45.94045 | 5.91824 | 9567 ft | 119 kts | 359° |
| 2026-05-04 20:50 | 45.94875 | 5.91949 | 9576 ft | 121 kts | 4° |
| 2026-05-04 20:50 | 45.95715 | 5.92086 | 9582 ft | 122 kts | 2° |
| 2026-05-04 20:50 | 45.96556 | 5.92216 | 9589 ft | 122 kts | 3° |
| 2026-05-04 20:50 | 45.97401 | 5.92345 | 9597 ft | 122 kts | 2° |
| 2026-05-04 20:51 | 45.98240 | 5.92474 | 9606 ft | 123 kts | 2° |
| 2026-05-04 20:51 | 45.99087 | 5.92602 | 9607 ft | 122 kts | 2° |
| 2026-05-04 20:51 | 45.99932 | 5.92723 | 9603 ft | 122 kts | 1° |
| 2026-05-04 20:51 | 46.00774 | 5.92828 | 9602 ft | 121 kts | 1° |
| 2026-05-04 20:52 | 46.01616 | 5.92935 | 9596 ft | 122 kts | 359° |
| 2026-05-04 20:52 | 46.02451 | 5.93033 | 9615 ft | 120 kts | 360° |
| 2026-05-04 20:52 | 46.03291 | 5.93135 | 9625 ft | 121 kts | 360° |
| 2026-05-04 20:52 | 46.04136 | 5.93229 | 9632 ft | 122 kts | 360° |
| 2026-05-04 20:53 | 46.04977 | 5.93536 | 9568 ft | 131 kts | 26° |
| 2026-05-04 20:53 | 46.05720 | 5.94180 | 9735 ft | 117 kts | 32° |
| 2026-05-04 20:53 | 46.06375 | 5.94973 | 9464 ft | 135 kts | 49° |
| 2026-05-04 20:53 | 46.07022 | 5.96006 | 9442 ft | 137 kts | 52° |
| 2026-05-04 20:54 | 46.07658 | 5.97016 | 9464 ft | 136 kts | 51° |
| 2026-05-04 20:54 | 46.08296 | 5.98020 | 9476 ft | 135 kts | 51° |
| 2026-05-04 20:54 | 46.08935 | 5.99016 | 9476 ft | 135 kts | 51° |
| 2026-05-04 20:54 | 46.09571 | 6.00005 | 9472 ft | 134 kts | 51° |
| 2026-05-04 20:55 | 46.10203 | 6.00977 | 9474 ft | 134 kts | 50° |
| 2026-05-04 20:55 | 46.10719 | 6.02063 | 9430 ft | 133 kts | 73° |
| 2026-05-04 20:55 | 46.10766 | 6.03378 | 9376 ft | 129 kts | 109° |
| 2026-05-04 20:55 | 46.10564 | 6.04591 | 9474 ft | 119 kts | 114° |
| 2026-05-04 20:56 | 46.10325 | 6.05716 | 9436 ft | 121 kts | 114° |
| 2026-05-04 20:56 | 46.10192 | 6.06928 | 9434 ft | 124 kts | 102° |
| 2026-05-04 20:56 | 46.10103 | 6.08118 | 9523 ft | 114 kts | 108° |
| 2026-05-04 20:56 | 46.09985 | 6.09248 | 9326 ft | 122 kts | 101° |
| 2026-05-04 20:57 | 46.10057 | 6.10524 | 9143 ft | 134 kts | 73° |
| 2026-05-04 20:57 | 46.10377 | 6.11747 | 9164 ft | 127 kts | 72° |
| 2026-05-04 20:57 | 46.10644 | 6.12953 | 9126 ft | 129 kts | 56° |
| 2026-05-04 20:57 | 46.11166 | 6.14089 | 8909 ft | 139 kts | 65° |
| 2026-05-04 20:58 | 46.11507 | 6.15379 | 8899 ft | 128 kts | 78° |
| 2026-05-04 20:58 | 46.11625 | 6.16608 | 8856 ft | 128 kts | 88° |
| 2026-05-04 20:58 | 46.11445 | 6.17761 | 8527 ft | 113 kts | 133° |
| 2026-05-04 20:58 | 46.10736 | 6.18154 | 8087 ft | 111 kts | 171° |
| 2026-05-04 20:59 | 46.09959 | 6.18342 | 7626 ft | 116 kts | 172° |
| 2026-05-04 20:59 | 46.09199 | 6.18613 | 7329 ft | 110 kts | 165° |
| 2026-05-04 20:59 | 46.08438 | 6.19000 | 6821 ft | 120 kts | 161° |
| 2026-05-04 20:59 | 46.07641 | 6.19229 | 6506 ft | 113 kts | 172° |
| 2026-05-04 21:00 | 46.06908 | 6.19497 | 6226 ft | 105 kts | 162° |
| 2026-05-04 21:00 | 46.06445 | 6.19767 | 5897 ft | 114 kts | 158° |
| 2026-05-04 21:00 | 46.05637 | 6.20192 | 5381 ft | 127 kts | 167° |
| 2026-05-04 21:00 | 46.04748 | 6.20731 | 5320 ft | 146 kts | 158° |
| 2026-05-04 21:01 | 46.03842 | 6.21413 | 5654 ft | 143 kts | 143° |
| 2026-05-04 21:01 | 46.03328 | 6.22505 | 6161 ft | 128 kts | 104° |
| 2026-05-04 21:01 | 46.03265 | 6.23753 | 6554 ft | 123 kts | 97° |
| 2026-05-04 21:01 | 46.03217 | 6.24993 | 6772 ft | 125 kts | 98° |
| 2026-05-04 21:02 | 46.03300 | 6.26240 | 6942 ft | 134 kts | 78° |
| 2026-05-04 21:02 | 46.03560 | 6.27517 | 7211 ft | 129 kts | 73° |
| 2026-05-04 21:02 | 46.04120 | 6.28604 | 7329 ft | 141 kts | 50° |
| 2026-05-04 21:02 | 46.04818 | 6.29576 | 7507 ft | 143 kts | 44° |
| 2026-05-04 21:03 | 46.05564 | 6.30528 | 7707 ft | 139 kts | 43° |
| 2026-05-04 21:03 | 46.06206 | 6.31541 | 7809 ft | 140 kts | 73° |
| 2026-05-04 21:03 | 46.06288 | 6.32878 | 7999 ft | 129 kts | 103° |
| 2026-05-04 21:03 | 46.06112 | 6.34130 | 8074 ft | 130 kts | 117° |
| 2026-05-04 21:04 | 46.05640 | 6.35227 | 8148 ft | 128 kts | 133° |
| 2026-05-04 21:04 | 46.05142 | 6.36272 | 8261 ft | 128 kts | 117° |
| 2026-05-04 21:04 | 46.04798 | 6.37463 | 8337 ft | 129 kts | 115° |
| 2026-05-04 21:04 | 46.04381 | 6.38593 | 8408 ft | 128 kts | 131° |
| 2026-05-04 21:05 | 46.03784 | 6.39540 | 8509 ft | 128 kts | 133° |
| 2026-05-04 21:05 | 46.03220 | 6.40510 | 8660 ft | 124 kts | 136° |
| 2026-05-04 21:05 | 46.02598 | 6.41377 | 8688 ft | 127 kts | 142° |
| 2026-05-04 21:05 | 46.01963 | 6.42219 | 8778 ft | 121 kts | 142° |
| 2026-05-04 21:06 | 46.01239 | 6.42873 | 8795 ft | 123 kts | 158° |
| 2026-05-04 21:06 | 46.00417 | 6.43141 | 8911 ft | 121 kts | 175° |
| 2026-05-04 21:06 | 45.99589 | 6.43269 | 9018 ft | 119 kts | 175° |
| 2026-05-04 21:06 | 45.98776 | 6.43446 | 9088 ft | 117 kts | 170° |
| 2026-05-04 21:07 | 45.98013 | 6.43637 | 9220 ft | 106 kts | 169° |
| 2026-05-04 21:07 | 45.97312 | 6.43822 | 9359 ft | 99 kts | 169° |
| 2026-05-04 21:07 | 45.96643 | 6.44006 | 9436 ft | 97 kts | 168° |
| 2026-05-04 21:07 | 45.96003 | 6.44192 | 9494 ft | 92 kts | 168° |
| 2026-05-04 21:08 | 45.95360 | 6.44385 | 9465 ft | 95 kts | 168° |
| 2026-05-04 21:08 | 45.94715 | 6.44583 | 9466 ft | 95 kts | 167° |
| 2026-05-04 21:08 | 45.94062 | 6.44791 | 9466 ft | 97 kts | 167° |
| 2026-05-04 21:08 | 45.93401 | 6.45000 | 9473 ft | 97 kts | 166° |
| 2026-05-04 21:09 | 45.92804 | 6.45440 | 9463 ft | 97 kts | 158° |
| 2026-05-04 21:09 | 45.92155 | 6.45701 | 9465 ft | 97 kts | 162° |
| 2026-05-04 21:09 | 45.91509 | 6.45955 | 9479 ft | 97 kts | 165° |
| 2026-05-04 21:09 | 45.90854 | 6.46193 | 9489 ft | 97 kts | 165° |
| 2026-05-04 21:10 | 45.90207 | 6.46422 | 9470 ft | 94 kts | 166° |
| 2026-05-04 21:10 | 45.89585 | 6.46639 | 9440 ft | 89 kts | 166° |
| 2026-05-04 21:10 | 45.88926 | 6.46871 | 9286 ft | 105 kts | 166° |
| 2026-05-04 21:10 | 45.88213 | 6.47102 | 9341 ft | 108 kts | 167° |
| 2026-05-04 21:11 | 45.87479 | 6.47346 | 9453 ft | 105 kts | 167° |
| 2026-05-04 21:11 | 45.86804 | 6.47567 | 9538 ft | 98 kts | 166° |
| 2026-05-04 21:11 | 45.86144 | 6.47792 | 9533 ft | 97 kts | 166° |
| 2026-05-04 21:11 | 45.85482 | 6.48014 | 9486 ft | 102 kts | 165° |
| 2026-05-04 21:12 | 45.84763 | 6.48255 | 9414 ft | 110 kts | 167° |
| 2026-05-04 21:12 | 45.83992 | 6.48513 | 9352 ft | 117 kts | 166° |
| 2026-05-04 21:12 | 45.83179 | 6.48785 | 9288 ft | 125 kts | 166° |
| 2026-05-04 21:12 | 45.82306 | 6.49077 | 9210 ft | 132 kts | 167° |
| 2026-05-04 21:13 | 45.81393 | 6.49383 | 9129 ft | 138 kts | 167° |
| 2026-05-04 21:13 | 45.80435 | 6.49703 | 9043 ft | 145 kts | 167° |
| 2026-05-04 21:13 | 45.79439 | 6.50034 | 9012 ft | 148 kts | 167° |
| 2026-05-04 21:13 | 45.78430 | 6.50372 | 9006 ft | 149 kts | 167° |
| 2026-05-04 21:14 | 45.77434 | 6.50705 | 9007 ft | 144 kts | 166° |
| 2026-05-04 21:14 | 45.76466 | 6.51028 | 9005 ft | 141 kts | 166° |
| 2026-05-04 21:14 | 45.75510 | 6.51347 | 9002 ft | 141 kts | 166° |
| 2026-05-04 21:14 | 45.74544 | 6.51669 | 9004 ft | 144 kts | 166° |
| 2026-05-04 21:15 | 45.73559 | 6.51997 | 9010 ft | 146 kts | 166° |
| 2026-05-04 21:15 | 45.72559 | 6.52330 | 9012 ft | 148 kts | 166° |
| 2026-05-04 21:15 | 45.71556 | 6.52665 | 9012 ft | 150 kts | 167° |
| 2026-05-04 21:15 | 45.70521 | 6.53012 | 9004 ft | 154 kts | 166° |
| 2026-05-04 21:16 | 45.69463 | 6.53134 | 9004 ft | 153 kts | 185° |
| 2026-05-04 21:16 | 45.68426 | 6.53335 | 9013 ft | 151 kts | 161° |
| 2026-05-04 21:16 | 45.67421 | 6.53806 | 9004 ft | 153 kts | 161° |
| 2026-05-04 21:16 | 45.66410 | 6.54249 | 9001 ft | 150 kts | 163° |
| 2026-05-04 21:17 | 45.65410 | 6.54617 | 8999 ft | 146 kts | 165° |
| 2026-05-04 21:17 | 45.64425 | 6.54953 | 8985 ft | 143 kts | 167° |
| 2026-05-04 21:17 | 45.63484 | 6.55270 | 9002 ft | 141 kts | 166° |
| 2026-05-04 21:17 | 45.62518 | 6.55595 | 9004 ft | 145 kts | 166° |
| 2026-05-04 21:18 | 45.61544 | 6.55921 | 8990 ft | 143 kts | 166° |
| 2026-05-04 21:18 | 45.60559 | 6.56250 | 8995 ft | 145 kts | 166° |
| 2026-05-04 21:18 | 45.59597 | 6.56572 | 8992 ft | 142 kts | 166° |
| 2026-05-04 21:18 | 45.58646 | 6.56894 | 9016 ft | 140 kts | 165° |
| 2026-05-04 21:19 | 45.57708 | 6.57206 | 9025 ft | 137 kts | 166° |
| 2026-05-04 21:19 | 45.56765 | 6.57520 | 9029 ft | 141 kts | 165° |
| 2026-05-04 21:19 | 45.55802 | 6.57843 | 9031 ft | 143 kts | 166° |
| 2026-05-04 21:19 | 45.54822 | 6.58171 | 9034 ft | 146 kts | 165° |
| 2026-05-04 21:20 | 45.53829 | 6.58502 | 9032 ft | 147 kts | 166° |
| 2026-05-04 21:20 | 45.52830 | 6.58836 | 9032 ft | 147 kts | 165° |
| 2026-05-04 21:20 | 45.51859 | 6.59160 | 9014 ft | 136 kts | 166° |
| 2026-05-04 21:20 | 45.50948 | 6.59465 | 9018 ft | 135 kts | 166° |
| 2026-05-04 21:21 | 45.50036 | 6.59769 | 9010 ft | 133 kts | 165° |
| 2026-05-04 21:21 | 45.49152 | 6.60101 | 8995 ft | 132 kts | 154° |
| 2026-05-04 21:21 | 45.48351 | 6.60729 | 8985 ft | 131 kts | 155° |
| 2026-05-04 21:21 | 45.47458 | 6.61042 | 8965 ft | 132 kts | 158° |
| 2026-05-04 21:22 | 45.46833 | 6.61978 | 8822 ft | 145 kts | 110° |
| 2026-05-04 21:22 | 45.46608 | 6.63267 | 9159 ft | 126 kts | 109° |
| 2026-05-04 21:22 | 45.46555 | 6.64572 | 9057 ft | 139 kts | 100° |
| 2026-05-04 21:22 | 45.45870 | 6.65373 | 8887 ft | 153 kts | 186° |
| 2026-05-04 21:23 | 45.45057 | 6.64373 | 8868 ft | 160 kts | 238° |
| 2026-05-04 21:23 | 45.44562 | 6.62957 | 8607 ft | 159 kts | 246° |
| 2026-05-04 21:23 | 45.44728 | 6.61521 | 8266 ft | 160 kts | 322° |
| 2026-05-04 21:23 | 45.45657 | 6.61305 | 8203 ft | 135 kts | 21° |
| 2026-05-04 21:24 | 45.46143 | 6.62257 | 7896 ft | 128 kts | 124° |
| 2026-05-04 21:24 | 45.45361 | 6.62653 | 7807 ft | 121 kts | 138° |
| 2026-05-04 21:24 | 45.45090 | 6.63742 | 7647 ft | 121 kts | 95° |
| 2026-05-04 21:24 | 45.44892 | 6.64754 | 7480 ft | 105 kts | 140° |
| 2026-05-04 21:25 | 45.44136 | 6.64831 | 7087 ft | 121 kts | 188° |
| 2026-05-04 21:25 | 45.43313 | 6.64770 | 6815 ft | 118 kts | 162° |
| 2026-05-04 21:25 | 45.42514 | 6.65141 | 6554 ft | 123 kts | 167° |
| 2026-05-04 21:25 | 45.41679 | 6.65068 | 6459 ft | 116 kts | 190° |
| 2026-05-04 21:26 | 45.40918 | 6.64719 | 6333 ft | 113 kts | 201° |
| 2026-05-04 21:26 | 45.40274 | 6.64114 | 6413 ft | 112 kts | 213° |
| 2026-05-04 21:26 | 45.39711 | 6.63454 | 6598 ft | 76 kts | 222° |
| 2026-05-04 21:26 | 45.39610 | 6.63313 | 6636 ft | 0 kts | 112° |
| 2026-05-04 21:29 | 45.39659 | 6.63385 | 6634 ft | 32 kts | 43° |
| 2026-05-04 21:29 | 45.40035 | 6.63891 | 6422 ft | 105 kts | 48° |
| 2026-05-04 21:29 | 45.40504 | 6.64705 | 6711 ft | 104 kts | 58° |
| 2026-05-04 21:29 | 45.41247 | 6.64727 | 5908 ft | 167 kts | 354° |
| 2026-05-04 21:30 | 45.42666 | 6.64607 | 4774 ft | 224 kts | 5° |
| 2026-05-04 21:30 | 45.43732 | 6.65055 | 5187 ft | 136 kts | 157° |
| 2026-05-04 21:30 | 45.42773 | 6.65373 | 5584 ft | 143 kts | 176° |
| 2026-05-04 21:30 | 45.41691 | 6.65272 | 5553 ft | 164 kts | 186° |
| 2026-05-04 21:31 | 45.41088 | 6.63923 | 6275 ft | 122 kts | 13° |
| 2026-05-04 21:31 | 45.41128 | 6.64932 | 6104 ft | 149 kts | 192° |
| 2026-05-04 21:31 | 45.40972 | 6.64824 | 5440 ft | 0 kts | 197° |